Time;durP1;ratioP1;P1;durP2;ratioP2;P2;SDS_P1;SDS_P2;PMS_P1;PMS_P2;Temp;Humidity;BMP_temperature;BMP_pressure;BME280_temperature;BME280_humidity;BME280_pressure;Samples;Min_cycle;Max_cycle;Signal;HPM_P1;HPM_P2
2023/12/09 00:01:16;;;;;;;107.47;33.25;;;;;;;4.09;100.00;99810.63;4945878;28;20532;-86
2023/12/09 00:03:43;;;;;;;97.20;32.13;;;;;;;4.11;100.00;99810.56;4921916;28;20121;-86
2023/12/09 00:06:10;;;;;;;99.70;31.42;;;;;;;4.10;100.00;99808.88;4933584;28;20042;-86
2023/12/09 00:08:37;;;;;;;90.25;28.98;;;;;;;4.12;100.00;99804.34;4950165;28;20061;-86
2023/12/09 00:11:04;;;;;;;98.57;29.15;;;;;;;4.11;100.00;99800.03;4934478;28;20126;-86
2023/12/09 00:13:31;;;;;;;101.00;33.50;;;;;;;4.12;100.00;99802.59;4923944;28;20486;-87
2023/12/09 00:15:59;;;;;;;91.05;29.35;;;;;;;4.13;100.00;99806.06;4950032;28;20066;-87
2023/12/09 00:18:26;;;;;;;82.57;28.02;;;;;;;4.13;100.00;99806.06;4935663;28;20387;-87
2023/12/09 00:20:52;;;;;;;88.07;27.73;;;;;;;4.13;100.00;99800.81;4945412;28;20043;-87
2023/12/09 00:23:19;;;;;;;85.28;29.45;;;;;;;4.13;100.00;99801.63;4951053;28;20113;-86
2023/12/09 00:25:46;;;;;;;91.05;28.73;;;;;;;4.13;100.00;99812.16;4948267;28;20055;-86
2023/12/09 00:28:13;;;;;;;110.63;32.40;;;;;;;4.15;100.00;99819.94;4952669;28;20042;-87
2023/12/09 00:30:40;;;;;;;99.40;29.42;;;;;;;4.14;100.00;99818.25;4922648;28;20490;-86
2023/12/09 00:33:07;;;;;;;100.00;32.47;;;;;;;4.16;100.00;99823.41;4938184;28;20051;-86
2023/12/09 00:35:34;;;;;;;93.90;29.83;;;;;;;4.14;100.00;99820.88;4965204;28;20405;-86
2023/12/09 00:38:00;;;;;;;93.45;29.67;;;;;;;4.13;100.00;99817.41;4920112;28;20125;-87
2023/12/09 00:40:27;;;;;;;83.38;27.13;;;;;;;4.16;100.00;99821.63;4933919;28;20046;-86
2023/12/09 00:42:54;;;;;;;78.65;25.67;;;;;;;4.17;100.00;99812.78;4949927;28;20413;-87
2023/12/09 00:45:21;;;;;;;106.68;28.70;;;;;;;4.15;100.00;99806.81;4947827;28;20536;-86
2023/12/09 00:47:47;;;;;;;92.57;26.45;;;;;;;4.17;100.00;99818.03;4952155;28;20051;-87
2023/12/09 00:50:14;;;;;;;81.95;26.50;;;;;;;4.17;100.00;99811.94;4948801;28;20045;-86
2023/12/09 00:52:41;;;;;;;98.10;29.42;;;;;;;4.17;100.00;99815.41;4932973;28;20047;-87
2023/12/09 00:55:08;;;;;;;93.65;28.80;;;;;;;4.18;100.00;99824.16;4950706;28;20046;-87
2023/12/09 00:57:35;;;;;;;94.20;30.88;;;;;;;4.20;100.00;99822.25;4949278;28;20045;-87
2023/12/09 01:00:04;;;;;;;89.93;29.98;;;;;;;4.20;100.00;99825.75;4950480;28;20042;-87
2023/12/09 01:02:31;;;;;;;91.10;30.67;;;;;;;4.22;100.00;99825.66;4901925;28;20166;-87
2023/12/09 01:04:58;;;;;;;88.43;28.98;;;;;;;4.22;100.00;99831.75;4919993;28;20130;-86
2023/12/09 01:07:25;;;;;;;85.38;27.13;;;;;;;4.22;100.00;99834.38;4966160;28;20471;-86
2023/12/09 01:09:51;;;;;;;94.55;28.45;;;;;;;4.23;100.00;99843.13;4921273;28;20042;-86
2023/12/09 01:12:18;;;;;;;82.57;26.25;;;;;;;4.22;100.00;99844.88;4951018;28;20058;-87
2023/12/09 01:14:45;;;;;;;87.82;26.45;;;;;;;4.23;100.00;99846.59;4937208;28;20059;-87
2023/12/09 01:17:12;;;;;;;84.65;27.48;;;;;;;4.22;100.00;99852.78;4933878;28;20066;-86
2023/12/09 01:19:38;;;;;;;91.97;26.55;;;;;;;4.22;100.00;99847.50;4920920;28;20059;-86
2023/12/09 01:22:05;;;;;;;86.60;28.50;;;;;;;4.23;100.00;99856.25;4950825;28;20061;-86
2023/12/09 01:24:32;;;;;;;87.30;28.35;;;;;;;4.22;100.00;99858.03;4934538;28;20054;-86
2023/12/09 01:26:59;;;;;;;86.85;27.42;;;;;;;4.23;100.00;99856.25;4923374;28;20394;-86
2023/12/09 01:29:25;;;;;;;114.95;31.05;;;;;;;4.23;100.00;99861.53;4937952;28;20043;-86
2023/12/09 01:31:52;;;;;;;113.90;31.58;;;;;;;4.20;100.00;99865.19;4937532;28;20047;-86
2023/12/09 01:34:19;;;;;;;105.13;29.15;;;;;;;4.20;100.00;99866.94;4949050;28;20053;-86
2023/12/09 01:36:46;;;;;;;117.93;32.63;;;;;;;4.19;100.00;99868.72;4949100;28;20517;-86
2023/12/09 01:39:13;;;;;;;105.43;29.80;;;;;;;4.19;100.00;99867.91;4953731;28;20051;-87
2023/12/09 01:41:40;;;;;;;128.23;32.63;;;;;;;4.21;100.00;99871.28;4939888;28;20054;-86
2023/12/09 01:44:06;;;;;;;90.38;27.75;;;;;;;4.20;100.00;99865.19;4920655;28;20047;-86
2023/12/09 01:46:34;;;;;;;96.63;29.67;;;;;;;4.21;100.00;99877.38;4935823;28;20128;-87
2023/12/09 01:49:00;;;;;;;96.78;27.58;;;;;;;4.22;100.00;99880.84;4916637;28;20054;-86
2023/12/09 01:51:28;;;;;;;94.28;28.55;;;;;;;4.22;100.00;99886.94;4902249;28;20134;-86
2023/12/09 01:53:55;;;;;;;87.47;24.75;;;;;;;4.23;100.00;99886.03;4948772;28;20047;-86
2023/12/09 01:56:22;;;;;;;84.20;26.63;;;;;;;4.24;100.00;99887.69;4934244;28;20041;-86
2023/12/09 01:58:49;;;;;;;85.15;25.85;;;;;;;4.24;100.00;99881.59;4930524;28;20054;-86
2023/12/09 02:01:15;;;;;;;93.35;27.67;;;;;;;4.26;100.00;99879.72;4932241;28;20122;-86
2023/12/09 02:03:43;;;;;;;85.18;25.55;;;;;;;4.25;100.00;99883.28;4918899;28;20055;-87
2023/12/09 02:06:10;;;;;;;95.28;27.73;;;;;;;4.27;100.00;99886.66;4931955;28;20047;-87
2023/12/09 02:08:38;;;;;;;98.78;29.55;;;;;;;4.28;100.00;99888.38;4919940;28;20058;-86
2023/12/09 02:11:08;;;;;;;91.32;28.15;;;;;;;4.28;100.00;99881.31;4917445;28;20070;-87
2023/12/09 02:13:59;;;;;;;114.40;29.58;;;;;;;4.24;100.00;99877.19;4936621;28;20525;-87
2023/12/09 02:16:31;;;;;;;103.45;30.50;;;;;;;4.28;100.00;99883.13;4963049;28;20050;-87
2023/12/09 02:18:59;;;;;;;83.90;24.67;;;;;;;4.30;100.00;99878.59;4933940;28;20066;-86
2023/12/09 02:21:26;;;;;;;90.20;27.73;;;;;;;4.30;100.00;99878.59;4932145;28;20109;-86
2023/12/09 02:23:53;;;;;;;79.25;25.23;;;;;;;4.29;100.00;99869.03;4935948;28;20054;-87
2023/12/09 02:26:25;;;;;;;90.32;25.85;;;;;;;4.30;100.00;99863.69;4963224;28;20047;-86
2023/12/09 02:29:01;;;;;;;82.75;25.95;;;;;;;4.29;100.00;99869.84;4950754;28;20055;-86
2023/12/09 02:31:31;;;;;;;82.70;26.17;;;;;;;4.31;100.00;99872.41;4931935;28;20218;-86
2023/12/09 02:34:00;;;;;;;90.80;26.75;;;;;;;4.31;100.00;99865.34;4948470;28;20134;-87
2023/12/09 02:36:28;;;;;;;81.53;25.50;;;;;;;4.32;100.00;99863.56;4934873;28;20069;-86
2023/12/09 02:38:56;;;;;;;68.82;23.45;;;;;;;4.33;100.00;99866.09;4939100;28;20050;-86
2023/12/09 02:41:23;;;;;;;82.60;25.20;;;;;;;4.32;100.00;99864.41;4949378;28;20042;-86
2023/12/09 02:43:50;;;;;;;76.78;24.23;;;;;;;4.34;100.00;99859.91;4949415;28;20043;-86
2023/12/09 02:46:17;;;;;;;73.38;24.75;;;;;;;4.34;100.00;99859.91;4946870;28;20055;-86
2023/12/09 02:48:44;;;;;;;93.43;24.35;;;;;;;4.35;100.00;99852.84;4933681;28;22525;-87
2023/12/09 02:51:11;;;;;;;86.60;25.08;;;;;;;4.33;100.00;99849.50;4932878;28;20062;-87
2023/12/09 02:53:37;;;;;;;85.72;23.23;;;;;;;4.36;100.00;99846.66;4921752;28;20419;-86
2023/12/09 02:56:04;;;;;;;80.35;23.25;;;;;;;4.35;100.00;99842.34;4933120;28;20043;-86
2023/12/09 02:58:31;;;;;;;73.65;22.10;;;;;;;4.35;100.00;99837.94;4947083;28;20074;-87
2023/12/09 03:00:58;;;;;;;79.90;22.65;;;;;;;4.36;100.00;99828.28;4932933;28;20043;-87
2023/12/09 03:03:25;;;;;;;78.90;23.52;;;;;;;4.38;100.00;99822.94;4965826;28;20130;-86
2023/12/09 03:05:52;;;;;;;85.57;25.75;;;;;;;4.38;100.00;99822.94;4932244;28;20050;-86
2023/12/09 03:08:19;;;;;;;71.78;24.02;;;;;;;4.39;100.00;99817.56;4963425;28;20047;-86
2023/12/09 03:10:45;;;;;;;67.60;22.98;;;;;;;4.39;100.00;99803.56;4953246;28;20051;-86
2023/12/09 03:13:12;;;;;;;90.28;25.58;;;;;;;4.39;100.00;99799.16;4930885;28;20051;-86
2023/12/09 03:15:39;;;;;;;62.58;22.20;;;;;;;4.39;100.00;99796.53;4936335;28;20042;-86
2023/12/09 03:18:06;;;;;;;75.07;24.13;;;;;;;4.40;100.00;99798.22;4919406;28;20043;-86
2023/12/09 03:20:32;;;;;;;81.35;25.30;;;;;;;4.41;100.00;99794.66;4952677;28;20050;-86
2023/12/09 03:22:59;;;;;;;80.28;25.95;;;;;;;4.43;100.00;99799.81;4946441;28;20055;-86
2023/12/09 03:25:26;;;;;;;106.13;27.02;;;;;;;4.41;100.00;99786.75;4936840;28;20409;-86
2023/12/09 03:27:53;;;;;;;80.95;24.90;;;;;;;4.42;100.00;99777.91;4932449;28;20046;-86
2023/12/09 03:30:20;;;;;;;85.38;24.90;;;;;;;4.40;100.00;99789.47;4947183;28;20446;-86
2023/12/09 03:32:47;;;;;;;74.38;23.63;;;;;;;4.41;100.00;99781.50;4931389;28;20050;-86
2023/12/09 03:35:14;;;;;;;71.85;21.73;;;;;;;4.41;100.00;99780.66;4948606;28;20046;-86
2023/12/09 03:37:41;;;;;;;94.85;26.00;;;;;;;4.40;100.00;99787.72;4933196;28;20133;-87
2023/12/09 03:40:10;;;;;;;89.15;24.10;;;;;;;4.42;100.00;99787.59;4962482;28;20371;-86
2023/12/09 03:42:36;;;;;;;82.70;24.88;;;;;;;4.41;100.00;99791.19;4945202;28;20069;-86
2023/12/09 03:45:04;;;;;;;64.82;21.38;;;;;;;4.42;100.00;99788.44;4930207;28;20042;-87
2023/12/09 03:47:31;;;;;;;83.32;26.20;;;;;;;4.43;100.00;99798.03;4916492;28;20050;-86
2023/12/09 03:49:58;;;;;;;71.90;23.38;;;;;;;4.43;100.00;99792.78;4914392;28;20042;-86
2023/12/09 03:52:24;;;;;;;89.10;25.85;;;;;;;4.44;100.00;99781.31;4934497;28;20050;-87
2023/12/09 03:54:52;;;;;;;77.38;25.88;;;;;;;4.44;100.00;99797.06;4939309;28;20545;-87
2023/12/09 03:57:18;;;;;;;73.30;22.70;;;;;;;4.45;100.00;99792.66;4954652;28;20457;-86
2023/12/09 03:59:45;;;;;;;75.20;23.25;;;;;;;4.47;100.00;99790.78;4947981;28;20449;-86
2023/12/09 04:02:12;;;;;;;69.38;23.77;;;;;;;4.46;100.00;99797.00;4931667;28;20058;-87
2023/12/09 04:04:40;;;;;;;83.78;23.77;;;;;;;4.47;100.00;99796.03;4945327;28;20047;-87
2023/12/09 04:07:07;;;;;;;88.07;27.30;;;;;;;4.47;100.00;99796.03;4933098;28;20119;-87
2023/12/09 04:09:33;;;;;;;98.10;27.00;;;;;;;4.45;100.00;99801.41;4934439;28;20058;-87
2023/12/09 04:12:00;;;;;;;90.85;27.13;;;;;;;4.47;100.00;99796.03;4933391;28;20053;-87
2023/12/09 04:14:27;;;;;;;98.22;28.50;;;;;;;4.47;100.00;99796.03;4931808;28;20131;-86
2023/12/09 04:16:54;;;;;;;89.32;27.40;;;;;;;4.48;100.00;99797.75;4923824;28;20053;-86
2023/12/09 04:19:21;;;;;;;89.40;25.90;;;;;;;4.49;100.00;99799.41;4946814;28;20038;-86
2023/12/09 04:21:48;;;;;;;124.75;32.00;;;;;;;4.48;100.00;99803.00;4931194;28;20047;-86
2023/12/09 04:24:15;;;;;;;94.40;27.67;;;;;;;4.46;100.00;99794.34;4947462;28;20043;-87
2023/12/09 04:26:42;;;;;;;91.38;26.08;;;;;;;4.46;100.00;99808.34;4944629;28;20453;-87
2023/12/09 04:29:09;;;;;;;90.28;24.40;;;;;;;4.47;100.00;99814.44;4962294;28;20545;-86
2023/12/09 04:31:35;;;;;;;87.63;25.13;;;;;;;4.49;100.00;99812.56;4945931;28;20387;-87
2023/12/09 04:34:02;;;;;;;88.90;26.15;;;;;;;4.47;100.00;99804.75;4933425;28;20047;-87
2023/12/09 04:36:29;;;;;;;87.53;25.33;;;;;;;4.49;100.00;99805.50;4931928;28;20066;-87
2023/12/09 04:38:56;;;;;;;109.97;26.17;;;;;;;4.49;100.00;99805.50;4944861;28;20046;-86
2023/12/09 04:41:23;;;;;;;75.88;24.70;;;;;;;4.50;100.00;99806.34;4953155;28;20051;-87
2023/12/09 04:43:50;;;;;;;90.50;27.15;;;;;;;4.51;100.00;99803.63;4920221;28;20106;-87
2023/12/09 04:46:17;;;;;;;77.85;24.02;;;;;;;4.51;100.00;99802.78;4948324;28;20640;-86
2023/12/09 04:48:44;;;;;;;76.20;22.80;;;;;;;4.52;100.00;99799.22;4933506;28;20454;-87
2023/12/09 04:51:11;;;;;;;73.30;22.30;;;;;;;4.53;100.00;99808.81;4934372;28;20050;-86
2023/12/09 04:53:38;;;;;;;79.38;24.70;;;;;;;4.52;100.00;99792.16;4936665;28;20046;-86
2023/12/09 04:56:07;;;;;;;90.65;24.92;;;;;;;4.52;100.00;99794.78;4915410;28;20054;-86
2023/12/09 04:58:34;;;;;;;106.35;27.92;;;;;;;4.52;100.00;99786.91;4950869;28;20077;-87
2023/12/09 05:01:01;;;;;;;89.55;26.65;;;;;;;4.52;100.00;99789.53;4944489;28;20042;-87
2023/12/09 05:03:30;;;;;;;92.30;25.77;;;;;;;4.53;100.00;99782.50;4948968;28;20499;-86
2023/12/09 05:05:56;;;;;;;90.40;27.02;;;;;;;4.53;100.00;99777.25;4949493;28;20402;-86
2023/12/09 05:08:23;;;;;;;89.45;25.40;;;;;;;4.53;100.00;99762.31;4917914;28;20109;-86
2023/12/09 05:10:50;;;;;;;102.15;27.50;;;;;;;4.55;100.00;99775.34;4949334;28;20452;-86
2023/12/09 05:13:17;;;;;;;100.50;28.05;;;;;;;4.53;100.00;99762.31;4951051;28;20051;-87
2023/12/09 05:15:44;;;;;;;126.80;29.35;;;;;;;4.55;100.00;99757.81;4920325;28;20482;-86
2023/12/09 05:18:11;;;;;;;107.88;30.75;;;;;;;4.56;100.00;99761.28;4932160;28;20074;-86
2023/12/09 05:20:38;;;;;;;92.60;27.17;;;;;;;4.56;100.00;99763.91;4937692;28;20062;-87
2023/12/09 05:23:05;;;;;;;110.78;31.20;;;;;;;4.56;100.00;99763.91;4951387;28;20099;-86
2023/12/09 05:25:35;;;;;;;113.03;27.35;;;;;;;4.56;100.00;99756.84;4953347;28;20046;-86
2023/12/09 05:28:02;;;;;;;107.00;31.30;;;;;;;4.57;100.00;99747.16;4960983;28;20062;-87
2023/12/09 05:30:29;;;;;;;119.75;31.35;;;;;;;4.56;100.00;99750.75;4955007;28;20127;-87
2023/12/09 05:32:57;;;;;;;117.05;32.50;;;;;;;4.57;100.00;99745.38;4932589;28;20082;-86
2023/12/09 05:35:24;;;;;;;87.32;27.75;;;;;;;4.58;100.00;99746.25;4947858;28;20055;-86
2023/12/09 05:37:51;;;;;;;93.25;26.67;;;;;;;4.59;100.00;99733.94;4934606;28;20055;-86
2023/12/09 05:40:18;;;;;;;87.35;28.25;;;;;;;4.61;100.00;99739.94;4933248;28;20049;-86
2023/12/09 05:42:45;;;;;;;110.15;29.77;;;;;;;4.61;100.00;99734.69;4940863;28;20447;-87
2023/12/09 05:45:12;;;;;;;78.68;25.55;;;;;;;4.60;100.00;99733.81;4965382;28;20133;-86
2023/12/09 05:47:38;;;;;;;91.05;28.40;;;;;;;4.61;100.00;99740.78;4951532;28;20043;-87
2023/12/09 05:50:06;;;;;;;114.40;28.73;;;;;;;4.62;100.00;99746.88;4919806;28;20051;-86
2023/12/09 05:52:32;;;;;;;117.57;30.95;;;;;;;4.62;100.00;99741.63;4949870;28;20053;-86
2023/12/09 05:54:59;;;;;;;98.38;25.88;;;;;;;4.62;100.00;99746.88;4953098;28;20097;-87
2023/12/09 05:57:26;;;;;;;120.90;33.65;;;;;;;4.61;100.00;99750.47;4964345;28;20050;-87
2023/12/09 05:59:53;;;;;;;179.57;35.10;;;;;;;4.61;100.00;99742.56;4944491;28;20050;-87
2023/12/09 06:02:20;;;;;;;100.78;26.77;;;;;;;4.60;100.00;99754.84;4948126;28;20055;-86
2023/12/09 06:04:47;;;;;;;118.45;27.85;;;;;;;4.61;100.00;99751.28;4965511;28;20058;-86
2023/12/09 06:07:13;;;;;;;125.22;29.08;;;;;;;4.61;100.00;99748.66;4965629;28;20498;-86
2023/12/09 06:09:40;;;;;;;123.22;30.17;;;;;;;4.62;100.00;99749.50;4935663;28;20058;-86
2023/12/09 06:12:07;;;;;;;116.78;31.60;;;;;;;4.61;100.00;99751.28;4938716;28;20077;-86
2023/12/09 06:14:34;;;;;;;96.60;25.17;;;;;;;4.61;100.00;99746.03;4930619;28;20050;-86
2023/12/09 06:17:00;;;;;;;109.38;28.92;;;;;;;4.62;100.00;99746.88;4948604;28;20049;-87
2023/12/09 06:19:27;;;;;;;109.10;27.65;;;;;;;4.63;100.00;99744.16;4940788;28;20049;-87
2023/12/09 06:21:54;;;;;;;103.13;28.67;;;;;;;4.63;100.00;99733.63;4931385;28;20106;-86
2023/12/09 06:24:21;;;;;;;99.05;26.75;;;;;;;4.63;100.00;99738.91;4948603;28;20051;-87
2023/12/09 06:26:48;;;;;;;88.75;24.77;;;;;;;4.64;100.00;99737.09;4947847;28;20049;-86
2023/12/09 06:29:15;;;;;;;101.35;28.25;;;;;;;4.64;100.00;99737.94;4947894;28;20047;-87
2023/12/09 06:31:42;;;;;;;105.80;26.55;;;;;;;4.65;100.00;99725.63;4948667;28;20050;-87
2023/12/09 06:34:08;;;;;;;112.00;28.13;;;;;;;4.66;100.00;99724.69;4931970;28;20418;-87
2023/12/09 06:36:35;;;;;;;114.63;27.05;;;;;;;4.65;100.00;99723.84;4937608;28;20043;-87
2023/12/09 06:39:03;;;;;;;109.25;28.33;;;;;;;4.66;100.00;99717.66;4916252;28;20053;-87
2023/12/09 06:41:31;;;;;;;93.35;26.08;;;;;;;4.66;100.00;99719.44;4917540;28;20521;-87
2023/12/09 06:43:57;;;;;;;101.75;25.83;;;;;;;4.67;100.00;99719.31;4919531;28;20046;-87
2023/12/09 06:46:24;;;;;;;95.57;26.10;;;;;;;4.67;100.00;99721.94;4929094;28;20448;-87
2023/12/09 06:48:51;;;;;;;86.45;24.45;;;;;;;4.67;100.00;99710.59;4933477;28;20046;-87
2023/12/09 06:51:18;;;;;;;92.15;27.20;;;;;;;4.68;100.00;99710.50;4915584;28;20039;-87
2023/12/09 06:53:45;;;;;;;80.07;26.15;;;;;;;4.67;100.00;99698.28;4955832;28;20053;-86
2023/12/09 06:56:19;;;;;;;94.00;26.40;;;;;;;4.68;100.00;99701.75;4933441;28;20097;-86
2023/12/09 06:58:46;;;;;;;79.45;25.25;;;;;;;4.69;100.00;99703.44;4926520;28;20046;-87
2023/12/09 07:01:19;;;;;;;93.82;27.73;;;;;;;4.68;100.00;99700.00;4946726;28;20459;-86
2023/12/09 07:03:48;;;;;;;107.88;26.92;;;;;;;4.70;100.00;99710.38;4930904;28;20043;-87
2023/12/09 07:06:17;;;;;;;112.65;30.50;;;;;;;4.69;100.00;99714.81;4915939;28;20434;-87
2023/12/09 07:08:44;;;;;;;99.18;28.85;;;;;;;4.70;100.00;99713.84;4933775;28;20435;-87
2023/12/09 07:11:11;;;;;;;99.63;27.60;;;;;;;4.71;100.00;99710.28;4933744;28;20055;-87
2023/12/09 07:13:38;;;;;;;89.80;27.88;;;;;;;4.72;100.00;99696.19;4949776;28;20526;-87
2023/12/09 07:16:08;;;;;;;79.18;25.02;;;;;;;4.74;100.00;99714.50;4916299;28;20121;-86
2023/12/09 07:18:35;;;;;;;72.25;24.10;;;;;;;4.74;100.00;99710.09;4917732;28;20038;-87
2023/12/09 07:21:02;;;;;;;79.45;24.00;;;;;;;4.75;100.00;99710.94;4947408;28;20573;-87
2023/12/09 07:23:29;;;;;;;90.68;26.55;;;;;;;4.76;100.00;99717.88;4930601;28;20098;-87
2023/12/09 07:25:56;;;;;;;92.82;27.95;;;;;;;4.74;100.00;99717.97;4951937;28;20139;-86
2023/12/09 07:28:23;;;;;;;109.88;27.25;;;;;;;4.74;100.00;99717.97;4947186;28;20054;-87
2023/12/09 07:30:50;;;;;;;91.97;26.42;;;;;;;4.77;100.00;99723.03;4935755;28;20057;-86
2023/12/09 07:33:17;;;;;;;101.93;26.85;;;;;;;4.78;100.00;99722.09;4947384;28;20054;-87
2023/12/09 07:35:43;;;;;;;85.05;27.60;;;;;;;4.78;100.00;99724.75;4920853;28;20054;-87
2023/12/09 07:38:10;;;;;;;100.80;28.10;;;;;;;4.79;100.00;99723.78;4917514;28;20853;-86
2023/12/09 07:40:37;;;;;;;90.13;26.15;;;;;;;4.80;100.00;99721.97;4935466;28;20056;-86
2023/12/09 07:43:04;;;;;;;102.97;29.08;;;;;;;4.81;100.00;99728.94;4915759;28;20043;-87
2023/12/09 07:45:31;;;;;;;102.50;25.70;;;;;;;4.82;100.00;99729.78;4950098;28;20039;-87
2023/12/09 07:47:58;;;;;;;84.13;25.75;;;;;;;4.83;100.00;99716.50;4948412;28;20050;-87
2023/12/09 07:50:25;;;;;;;77.32;25.13;;;;;;;4.84;100.00;99715.59;4945610;28;20129;-86
2023/12/09 07:52:51;;;;;;;83.47;25.88;;;;;;;4.85;100.00;99698.84;4936121;28;20051;-87
2023/12/09 07:55:18;;;;;;;86.78;26.42;;;;;;;4.86;100.00;99697.91;4934116;28;20549;-86
2023/12/09 07:57:45;;;;;;;76.15;25.63;;;;;;;4.89;100.00;99702.13;4931778;28;20494;-86
2023/12/09 08:00:12;;;;;;;66.30;23.50;;;;;;;4.90;100.00;99702.00;4915603;28;20054;-87
2023/12/09 08:02:39;;;;;;;67.20;24.55;;;;;;;4.93;100.00;99700.97;4913711;28;20086;-82
2023/12/09 08:05:06;;;;;;;91.85;26.25;;;;;;;4.94;100.00;99706.13;4927632;28;20039;-83
2023/12/09 08:07:32;;;;;;;90.20;26.60;;;;;;;4.93;100.00;99701.78;4952956;28;20047;-82
2023/12/09 08:10:00;;;;;;;94.57;26.08;;;;;;;4.93;100.00;99700.97;4921102;28;20817;-81
2023/12/09 08:12:27;;;;;;;95.57;27.75;;;;;;;4.91;100.00;99698.44;4923235;28;20105;-82
2023/12/09 08:14:56;;;;;;;97.85;28.65;;;;;;;4.93;100.00;99693.06;4930924;28;20122;-82
2023/12/09 08:17:23;;;;;;;107.68;29.73;;;;;;;4.93;100.00;99693.06;4954584;28;20066;-82
2023/12/09 08:19:49;;;;;;;102.20;26.35;;;;;;;4.93;100.00;99685.16;4932009;28;20397;-81
2023/12/09 08:22:16;;;;;;;111.47;30.00;;;;;;;4.94;100.00;99671.94;4946377;28;20503;-82
2023/12/09 08:24:43;;;;;;;87.05;26.02;;;;;;;4.95;100.00;99678.84;4933600;28;20056;-84
2023/12/09 08:27:10;;;;;;;108.95;29.38;;;;;;;4.96;100.00;99685.81;4924943;28;20963;-84
2023/12/09 08:29:38;;;;;;;98.65;27.80;;;;;;;4.97;100.00;99669.09;4931568;28;20071;-84
2023/12/09 08:32:05;;;;;;;89.88;26.60;;;;;;;5.00;100.00;99668.03;4926607;28;20046;-84
2023/12/09 08:34:32;;;;;;;80.72;23.65;;;;;;;5.04;100.00;99660.75;4935512;28;20097;-84
2023/12/09 08:36:59;;;;;;;65.57;22.42;;;;;;;5.06;100.00;99656.22;4948666;28;21245;-85
2023/12/09 08:39:25;;;;;;;53.30;21.25;;;;;;;5.10;100.00;99668.25;4934388;28;20133;-84
2023/12/09 08:41:53;;;;;;;52.22;21.42;;;;;;;5.13;100.00;99668.03;4934127;28;20061;-82
2023/12/09 08:44:19;;;;;;;54.25;21.30;;;;;;;5.17;100.00;99661.63;4966052;28;20101;-85
2023/12/09 08:46:46;;;;;;;53.97;21.83;;;;;;;5.20;100.00;99656.13;4948166;28;20065;-84
2023/12/09 08:49:13;;;;;;;51.40;24.52;;;;;;;5.22;100.00;99654.25;4935229;28;20058;-84
2023/12/09 08:51:47;;;;;;;52.03;23.77;;;;;;;5.22;100.00;99649.81;4940801;28;20047;-84
2023/12/09 08:54:14;;;;;;;62.83;29.17;;;;;;;5.23;100.00;99659.38;4939550;28;20122;-84
2023/12/09 08:56:41;;;;;;;54.83;27.05;;;;;;;5.27;100.00;99661.84;4935112;28;20505;-82
2023/12/09 08:59:10;;;;;;;57.80;26.48;;;;;;;5.26;100.00;99654.88;4945752;28;20054;-82
2023/12/09 09:01:37;;;;;;;59.13;28.20;;;;;;;5.28;100.00;99666.13;4935218;28;20126;-84
2023/12/09 09:04:04;;;;;;;64.25;27.45;;;;;;;5.29;100.00;99668.69;4941263;28;20974;-84
2023/12/09 09:06:31;;;;;;;48.70;23.42;;;;;;;5.32;100.00;99659.72;4932054;28;20113;-83
2023/12/09 09:08:57;;;;;;;42.17;19.70;;;;;;;5.31;100.00;99650.97;4934062;28;20051;-84
2023/12/09 09:11:24;;;;;;;47.90;21.92;;;;;;;5.32;100.00;99639.50;4949570;28;20054;-84
2023/12/09 09:13:51;;;;;;;50.00;20.33;;;;;;;5.34;100.00;99645.50;4926814;28;20049;-83
2023/12/09 09:16:18;;;;;;;42.25;19.77;;;;;;;5.35;100.00;99641.91;4950265;28;20129;-84
2023/12/09 09:18:45;;;;;;;46.08;18.65;;;;;;;5.35;100.00;99636.66;4924359;28;20510;-85
2023/12/09 09:21:12;;;;;;;46.95;20.90;;;;;;;5.36;100.00;99635.69;4922557;28;20047;-84
2023/12/09 09:23:38;;;;;;;45.10;20.58;;;;;;;5.37;100.00;99626.00;4938253;28;20055;-84
2023/12/09 09:26:05;;;;;;;46.92;19.75;;;;;;;5.39;100.00;99622.31;4948944;28;20478;-83
2023/12/09 09:28:32;;;;;;;43.13;18.35;;;;;;;5.40;100.00;99615.25;4935403;28;20674;-82
2023/12/09 09:30:59;;;;;;;43.83;20.02;;;;;;;5.40;100.00;99615.25;4938306;28;20055;-82
2023/12/09 09:33:26;;;;;;;43.35;17.88;;;;;;;5.40;100.00;99616.09;4932715;28;20049;-82
2023/12/09 09:35:57;;;;;;;40.95;17.75;;;;;;;5.43;100.00;99615.03;4916909;28;20105;-82
2023/12/09 09:38:24;;;;;;;48.67;20.05;;;;;;;5.43;100.00;99615.88;4951829;28;20102;-82
2023/12/09 09:40:51;;;;;;;47.72;20.83;;;;;;;5.43;100.00;99607.97;4920690;28;20063;-82
2023/12/09 09:43:24;;;;;;;57.67;22.35;;;;;;;5.43;100.00;99601.88;4933261;28;20577;-82
2023/12/09 09:45:52;;;;;;;50.70;21.05;;;;;;;5.46;100.00;99606.06;4934524;28;20487;-82
2023/12/09 09:48:23;;;;;;;43.95;19.27;;;;;;;5.46;100.00;99598.19;4949368;28;20081;-82
2023/12/09 09:50:52;;;;;;;40.67;19.30;;;;;;;5.46;100.00;99599.00;4953262;28;20419;-81
2023/12/09 09:53:45;;;;;;;41.13;19.58;;;;;;;5.43;100.00;99600.06;4951024;28;20541;-81
2023/12/09 09:56:12;;;;;;;45.27;20.13;;;;;;;5.47;100.00;99578.78;4889599;28;20524;-81
2023/12/09 09:58:40;;;;;;;43.03;19.70;;;;;;;5.48;100.00;99565.53;4950311;28;20458;-81
2023/12/09 10:01:09;;;;;;;50.10;20.67;;;;;;;5.49;100.00;99561.91;4936641;28;20051;-81
2023/12/09 10:03:36;;;;;;;40.83;18.42;;;;;;;5.51;100.00;99565.28;4949492;28;20415;-81
2023/12/09 10:06:04;;;;;;;42.88;20.48;;;;;;;5.53;100.00;99571.31;4933218;28;20413;-80
2023/12/09 10:08:31;;;;;;;43.05;19.88;;;;;;;5.56;100.00;99570.22;4948663;28;20054;-81
2023/12/09 10:10:57;;;;;;;38.28;18.30;;;;;;;5.59;100.00;99573.47;4935499;28;20043;-81
2023/12/09 10:13:24;;;;;;;33.60;18.13;;;;;;;5.60;100.00;99554.09;4936744;28;20039;-80
2023/12/09 10:15:51;;;;;;;39.38;19.23;;;;;;;5.62;100.00;99549.56;4935780;28;20066;-80
2023/12/09 10:18:21;;;;;;;38.97;19.80;;;;;;;5.65;100.00;99543.25;4953911;28;20101;-81
2023/12/09 10:20:47;;;;;;;39.58;19.60;;;;;;;5.66;100.00;99539.66;4916135;28;20050;-82
2023/12/09 10:23:16;;;;;;;40.92;20.48;;;;;;;5.69;100.00;99541.22;4897890;28;20398;-81
2023/12/09 10:25:46;;;;;;;39.72;18.50;;;;;;;5.70;100.00;99533.22;4950409;28;20407;-82
2023/12/09 10:28:13;;;;;;;38.22;20.65;;;;;;;5.74;100.00;99529.38;4935769;28;20051;-82
2023/12/09 10:30:41;;;;;;;35.70;17.58;;;;;;;5.75;100.00;99520.53;4932636;28;20062;-83
2023/12/09 10:33:12;;;;;;;30.73;16.85;;;;;;;5.75;100.00;99517.91;4958008;28;20149;-80
2023/12/09 10:35:39;;;;;;;26.60;16.13;;;;;;;5.77;100.00;99518.59;4932302;28;20122;-82
2023/12/09 10:38:05;;;;;;;31.23;14.38;;;;;;;5.77;100.00;99518.59;4914008;28;20139;-82
2023/12/09 10:40:32;;;;;;;37.40;16.13;;;;;;;5.78;100.00;99514.22;4952842;28;20062;-81
2023/12/09 10:43:01;;;;;;;28.15;16.55;;;;;;;5.79;100.00;99508.81;4931817;28;20105;-82
2023/12/09 10:45:28;;;;;;;32.28;15.75;;;;;;;5.80;100.00;99510.50;4948253;28;20042;-82
2023/12/09 10:47:54;;;;;;;26.40;13.73;;;;;;;5.78;100.00;99507.13;4918718;28;20050;-82
2023/12/09 10:50:22;;;;;;;23.98;12.32;;;;;;;5.80;100.00;99491.19;4927163;28;20058;-82
2023/12/09 10:52:49;;;;;;;33.38;14.77;;;;;;;5.81;100.00;99495.53;4957180;28;20693;-81
2023/12/09 10:55:16;;;;;;;29.13;12.00;;;;;;;5.83;100.00;99488.34;4947403;28;20134;-81
2023/12/09 10:57:43;;;;;;;25.27;12.48;;;;;;;5.86;100.00;99482.84;4919153;28;20414;-82
2023/12/09 11:00:14;;;;;;;20.13;11.30;;;;;;;5.89;100.00;99477.34;4948825;28;20877;-82
2023/12/09 11:02:42;;;;;;;23.77;12.07;;;;;;;5.92;100.00;99460.47;4932663;28;20055;-82
2023/12/09 11:05:09;;;;;;;24.95;12.15;;;;;;;5.93;100.00;99444.56;4932635;28;20046;-81
2023/12/09 11:07:37;;;;;;;22.77;10.75;;;;;;;5.96;100.00;99419.78;4917988;28;20070;-81
2023/12/09 11:10:08;;;;;;;24.08;10.07;;;;;;;5.97;100.00;99413.56;4946822;28;20047;-81
2023/12/09 11:12:35;;;;;;;24.20;9.65;;;;;;;5.99;100.00;99401.94;4940208;28;20577;-87
2023/12/09 11:15:30;;;;;;;17.42;8.40;;;;;;;5.99;100.00;99395.84;4938000;28;20046;-84
2023/12/09 11:18:11;;;;;;;19.40;9.73;;;;;;;5.98;100.00;99391.50;4963535;28;20764;-84